Time;durP1;ratioP1;P1;durP2;ratioP2;P2;SDS_P1;SDS_P2;PMS_P1;PMS_P2;Temp;Humidity;BMP_temperature;BMP_pressure;BME280_temperature;BME280_humidity;BME280_pressure;Samples;Min_cycle;Max_cycle;Signal;HPM_P1;HPM_P2
2021/04/07 00:00:14;;;;;;;24.82;13.70;;;;;;;1.16;58.83;99157.56;1741128;81;25461;-81
2021/04/07 00:02:40;;;;;;;28.25;12.70;;;;;;;1.11;58.82;99164.38;1748068;81;25807;-80
2021/04/07 00:05:20;;;;;;;30.83;13.87;;;;;;;1.10;58.99;99167.44;1748230;81;33400;-80
2021/04/07 00:07:48;;;;;;;32.42;14.15;;;;;;;1.05;59.04;99163.64;1739971;81;25829;-81
2021/04/07 00:10:16;;;;;;;25.15;13.18;;;;;;;1.06;59.15;99162.69;1746118;81;25673;-80
2021/04/07 00:12:42;;;;;;;26.85;13.15;;;;;;;1.05;59.40;99163.64;1743216;81;25704;-80
2021/04/07 00:15:14;;;;;;;26.15;13.72;;;;;;;1.00;59.33;99161.94;1742099;81;25345;-80
2021/04/07 00:17:40;;;;;;;25.60;13.70;;;;;;;0.93;59.83;99160.83;1742540;81;26687;-80
2021/04/07 00:20:14;;;;;;;27.50;13.78;;;;;;;0.93;59.83;99160.83;1743159;81;26427;-80
2021/04/07 00:22:41;;;;;;;32.05;14.50;;;;;;;0.90;59.72;99164.52;1739028;81;25811;-80
2021/04/07 00:25:07;;;;;;;29.82;14.25;;;;;;;0.86;60.11;99160.56;1745565;80;26143;-81
2021/04/07 00:27:36;;;;;;;27.22;14.13;;;;;;;0.83;60.09;99164.69;1747102;81;25387;-80
2021/04/07 00:30:02;;;;;;;27.70;13.65;;;;;;;0.82;60.17;99166.94;1744904;81;26589;-81
2021/04/07 00:32:28;;;;;;;28.10;14.40;;;;;;;0.83;60.33;99161.64;1741754;81;26574;-81
2021/04/07 00:34:54;;;;;;;26.27;14.17;;;;;;;0.79;60.51;99168.01;1741035;81;34926;-81
2021/04/07 00:37:20;;;;;;;28.40;14.40;;;;;;;0.75;60.54;99166.62;1743536;81;25891;-81
2021/04/07 00:39:45;;;;;;;29.80;14.70;;;;;;;0.74;60.70;99161.16;1743880;81;25827;-81
2021/04/07 00:42:11;;;;;;;31.10;14.77;;;;;;;0.74;61.17;99157.30;1743338;81;33252;-81
2021/04/07 00:44:37;;;;;;;31.97;14.03;;;;;;;0.70;61.67;99165.40;1743537;81;31353;-80
2021/04/07 00:47:03;;;;;;;26.53;13.00;;;;;;;0.61;61.87;99152.86;1743068;81;35426;-80
2021/04/07 00:49:29;;;;;;;25.20;14.20;;;;;;;0.58;61.99;99155.23;1738541;81;25781;-80
2021/04/07 00:51:55;;;;;;;26.93;13.47;;;;;;;0.59;61.79;99152.17;1747574;78;25907;-81
2021/04/07 00:54:22;;;;;;;29.30;14.15;;;;;;;0.61;62.19;99149.01;1766600;79;25870;-80
2021/04/07 00:56:49;;;;;;;23.80;14.15;;;;;;;0.59;62.48;99152.17;1783695;79;25778;-81
2021/04/07 00:59:18;;;;;;;30.80;15.13;;;;;;;0.60;62.15;99147.36;1778703;79;26421;-81
2021/04/07 01:01:45;;;;;;;24.20;12.98;;;;;;;0.61;62.16;99152.39;1781980;79;25748;-81
2021/04/07 01:04:11;;;;;;;23.57;13.95;;;;;;;0.60;62.13;99155.91;1778153;79;25789;-80
2021/04/07 01:06:41;;;;;;;25.92;13.85;;;;;;;0.59;62.44;99154.27;1782490;79;25894;-81
2021/04/07 01:09:08;;;;;;;26.27;12.87;;;;;;;0.59;62.44;99154.27;1780574;79;25655;-81
2021/04/07 01:11:34;;;;;;;27.70;15.53;;;;;;;0.55;62.89;99154.68;1783755;79;25955;-81
2021/04/07 01:14:00;;;;;;;27.97;14.67;;;;;;;0.51;62.80;99161.82;1782673;79;26258;-81
2021/04/07 01:16:26;;;;;;;25.52;12.55;;;;;;;0.52;62.86;99160.89;1764111;79;25382;-80
2021/04/07 01:18:52;;;;;;;26.03;13.53;;;;;;;0.50;63.12;99160.69;1782693;79;33646;-81
2021/04/07 01:21:18;;;;;;;26.40;13.80;;;;;;;0.48;63.20;99156.94;1777317;79;31399;-81
2021/04/07 01:23:47;;;;;;;23.43;12.93;;;;;;;0.43;63.35;99157.33;1781220;79;34821;-81
2021/04/07 01:26:15;;;;;;;29.07;14.07;;;;;;;0.43;63.45;99164.23;1784150;79;25789;-81
2021/04/07 01:28:41;;;;;;;29.48;13.30;;;;;;;0.41;63.53;99163.56;1782040;79;25339;-81
2021/04/07 01:31:09;;;;;;;26.90;13.72;;;;;;;0.37;63.51;99164.75;1780405;79;25962;-81
2021/04/07 01:33:35;;;;;;;27.27;13.72;;;;;;;0.38;63.68;99163.80;1781280;79;26419;-81
2021/04/07 01:36:02;;;;;;;26.95;15.13;;;;;;;0.38;63.90;99167.20;1783210;79;25813;-81
2021/04/07 01:38:28;;;;;;;27.55;13.60;;;;;;;0.39;63.82;99174.44;1782746;79;25653;-81
2021/04/07 01:40:55;;;;;;;29.85;15.10;;;;;;;0.37;63.79;99167.33;1783010;79;25809;-81
2021/04/07 01:43:23;;;;;;;25.55;14.20;;;;;;;0.36;63.90;99173.41;1780172;79;26534;-81
2021/04/07 01:45:50;;;;;;;27.07;14.23;;;;;;;0.35;63.97;99173.86;1781839;79;25849;-81
2021/04/07 01:48:17;;;;;;;26.17;14.25;;;;;;;0.35;64.09;99179.00;1780281;79;25797;-81
2021/04/07 01:50:48;;;;;;;26.20;14.25;;;;;;;0.34;64.19;99177.39;1780908;79;25733;-81
2021/04/07 01:53:19;;;;;;;31.97;14.75;;;;;;;0.34;64.24;99179.15;1786356;79;26556;-81
2021/04/07 01:55:48;;;;;;;26.12;14.40;;;;;;;0.29;64.34;99183.86;1791397;79;25615;-80
2021/04/07 01:58:14;;;;;;;28.32;14.65;;;;;;;0.28;64.71;99192.52;1790963;79;25745;-81
2021/04/07 02:00:41;;;;;;;25.45;14.05;;;;;;;0.24;64.66;99189.84;1792000;78;26370;-81
2021/04/07 02:03:07;;;;;;;29.52;14.38;;;;;;;0.23;64.71;99195.94;1791871;79;25698;-81
2021/04/07 02:05:33;;;;;;;30.45;14.85;;;;;;;0.24;64.94;99193.22;1789593;79;25785;-81
2021/04/07 02:07:59;;;;;;;26.23;14.00;;;;;;;0.19;65.19;99194.08;1791675;79;33143;-81
2021/04/07 02:10:26;;;;;;;27.95;13.03;;;;;;;0.15;65.41;99202.99;1788899;79;25783;-81
2021/04/07 02:12:54;;;;;;;24.50;13.53;;;;;;;0.08;65.66;99198.84;1791037;79;26443;-81
2021/04/07 02:15:23;;;;;;;28.47;14.03;;;;;;;0.06;65.91;99192.20;1789215;79;26310;-81
2021/04/07 02:17:49;;;;;;;23.73;13.18;;;;;;;0.03;66.33;99195.00;1792118;79;25907;-80
2021/04/07 02:20:16;;;;;;;26.45;13.38;;;;;;;0.01;66.26;99200.76;1792059;79;26080;-81
2021/04/07 02:22:43;;;;;;;22.98;12.80;;;;;;;-0.03;67.11;99199.73;1792082;79;25782;-81
2021/04/07 02:25:12;;;;;;;27.42;14.40;;;;;;;-0.05;66.65;99198.22;1783716;79;25354;-81
2021/04/07 02:27:39;;;;;;;26.87;14.80;;;;;;;-0.02;66.55;99197.97;1788200;79;25932;-81
2021/04/07 02:30:08;;;;;;;24.30;13.28;;;;;;;0.03;66.50;99202.70;1793725;79;25809;-81
2021/04/07 02:32:34;;;;;;;24.52;13.50;;;;;;;0.06;66.46;99203.29;1791830;79;26387;-81
2021/04/07 02:35:00;;;;;;;27.80;14.07;;;;;;;0.04;66.73;99209.48;1790728;79;31346;-81
2021/04/07 02:37:26;;;;;;;24.55;13.62;;;;;;;0.05;66.64;99209.82;1791549;79;25868;-81
2021/04/07 02:39:52;;;;;;;24.37;13.57;;;;;;;0.05;67.19;99208.54;1789358;79;25774;-80
2021/04/07 02:42:22;;;;;;;23.85;13.10;;;;;;;0.00;67.06;99202.52;1791451;79;25836;-81
2021/04/07 02:44:48;;;;;;;24.15;13.95;;;;;;;0.02;66.98;99204.94;1791557;79;27030;-81
2021/04/07 02:47:14;;;;;;;23.85;12.85;;;;;;;-0.01;67.51;99208.09;1790791;79;25855;-81
2021/04/07 02:49:40;;;;;;;24.15;12.98;;;;;;;-0.04;67.44;99214.77;1792571;78;26620;-81
2021/04/07 02:52:06;;;;;;;20.50;12.07;;;;;;;-0.05;67.51;99211.06;1789521;79;25856;-81
2021/04/07 02:54:33;;;;;;;23.23;12.43;;;;;;;-0.09;68.10;99209.67;1780576;79;25946;-81
2021/04/07 02:57:00;;;;;;;22.10;13.03;;;;;;;-0.10;68.15;99220.89;1782638;79;26523;-81
2021/04/07 02:59:26;;;;;;;27.87;14.20;;;;;;;-0.13;68.28;99218.11;1782502;79;25794;-81
2021/04/07 03:01:52;;;;;;;21.23;12.53;;;;;;;-0.11;68.64;99217.52;1780760;79;35499;-81
2021/04/07 03:04:17;;;;;;;24.80;13.77;;;;;;;-0.12;69.11;99220.20;1782061;79;25813;-81
2021/04/07 03:06:44;;;;;;;25.50;12.83;;;;;;;-0.14;68.76;99220.78;1780747;79;26437;-81
2021/04/07 03:09:12;;;;;;;22.67;12.55;;;;;;;-0.17;68.70;99226.17;1781864;79;26249;-81
2021/04/07 03:11:38;;;;;;;24.18;11.48;;;;;;;-0.18;69.07;99224.55;1780820;79;26078;-81
2021/04/07 03:14:05;;;;;;;20.97;11.78;;;;;;;-0.20;69.26;99225.14;1781241;79;25782;-81
2021/04/07 03:16:33;;;;;;;24.57;12.88;;;;;;;-0.20;69.00;99230.28;1760104;79;26410;-81
2021/04/07 03:18:59;;;;;;;22.80;12.88;;;;;;;-0.23;69.16;99228.30;1763361;79;25406;-81
2021/04/07 03:21:26;;;;;;;27.25;12.80;;;;;;;-0.20;68.97;99229.80;1781489;79;26581;-81
2021/04/07 03:23:51;;;;;;;22.32;13.43;;;;;;;-0.18;68.93;99229.22;1782768;79;25826;-81
2021/04/07 03:26:18;;;;;;;22.53;12.97;;;;;;;-0.17;69.02;99230.83;1778807;79;34668;-81
2021/04/07 03:28:44;;;;;;;27.48;13.65;;;;;;;-0.15;68.93;99230.25;1781677;79;25319;-81
2021/04/07 03:31:10;;;;;;;26.23;13.87;;;;;;;-0.16;69.03;99233.77;1779288;79;25946;-81
2021/04/07 03:33:35;;;;;;;25.57;12.57;;;;;;;-0.17;69.49;99237.25;1779895;79;33483;-81
2021/04/07 03:36:05;;;;;;;22.17;13.90;;;;;;;-0.21;69.26;99238.45;1781555;79;31296;-81
2021/04/07 03:38:31;;;;;;;28.00;13.50;;;;;;;-0.21;69.52;99235.08;1780364;79;25346;-81
2021/04/07 03:40:57;;;;;;;20.95;12.18;;;;;;;-0.26;69.42;99240.09;1783494;79;25679;-81
2021/04/07 03:43:24;;;;;;;25.45;13.25;;;;;;;-0.29;69.58;99245.48;1779854;79;25410;-81
2021/04/07 03:45:54;;;;;;;22.50;12.28;;;;;;;-0.30;69.57;99243.03;1781829;79;26593;-81
2021/04/07 03:48:24;;;;;;;25.17;13.40;;;;;;;-0.32;70.17;99243.16;1782566;79;25784;-81
2021/04/07 03:50:50;;;;;;;22.98;12.80;;;;;;;-0.39;70.30;99249.72;1780348;79;26077;-81
2021/04/07 03:53:17;;;;;;;23.42;14.00;;;;;;;-0.38;70.14;99252.66;1777632;79;25747;-81
2021/04/07 03:55:50;;;;;;;24.47;14.03;;;;;;;-0.40;70.33;99253.23;1764809;78;25874;-81
2021/04/07 03:58:17;;;;;;;22.82;12.90;;;;;;;-0.42;70.38;99259.42;1791043;78;25865;-81
2021/04/07 04:00:43;;;;;;;27.13;14.43;;;;;;;-0.49;70.94;99254.78;1792827;78;25851;-81
2021/04/07 04:03:09;;;;;;;23.75;13.65;;;;;;;-0.52;70.94;99260.17;1810525;78;25438;-81
2021/04/07 04:05:36;;;;;;;27.30;14.83;;;;;;;-0.57;71.57;99252.02;1788078;79;26404;-80
2021/04/07 04:08:03;;;;;;;23.07;14.35;;;;;;;-0.61;72.40;99260.88;1804681;77;26374;-80
2021/04/07 04:10:29;;;;;;;26.23;13.68;;;;;;;-0.68;72.23;99264.41;1794787;78;25765;-80
2021/04/07 04:12:55;;;;;;;26.50;14.37;;;;;;;-0.69;72.75;99264.51;1794759;78;31368;-80
2021/04/07 04:15:21;;;;;;;23.60;13.88;;;;;;;-0.72;73.48;99270.69;1807756;78;25711;-79
2021/04/07 04:17:48;;;;;;;22.62;13.45;;;;;;;-0.71;72.99;99268.94;1808653;78;25789;-79
2021/04/07 04:20:16;;;;;;;24.00;13.65;;;;;;;-0.69;73.06;99271.73;1809548;78;25771;-80
2021/04/07 04:22:43;;;;;;;22.62;13.08;;;;;;;-0.69;73.53;99273.48;1789106;79;25865;-80
2021/04/07 04:25:13;;;;;;;23.07;14.03;;;;;;;-0.68;73.49;99275.95;1764552;79;25734;-81
2021/04/07 04:27:39;;;;;;;23.77;12.95;;;;;;;-0.65;73.20;99280.50;1793597;79;25712;-81
2021/04/07 04:30:09;;;;;;;23.87;13.08;;;;;;;-0.65;73.31;99283.87;1791573;79;25732;-81
2021/04/07 04:32:35;;;;;;;23.85;13.22;;;;;;;-0.60;73.13;99282.21;1790576;79;25412;-81
2021/04/07 04:35:01;;;;;;;21.27;12.30;;;;;;;-0.55;73.24;99283.48;1790477;79;33286;-81
2021/04/07 04:37:27;;;;;;;28.53;14.47;;;;;;;-0.54;73.78;99289.45;1793465;79;31896;-81
2021/04/07 04:39:53;;;;;;;27.30;14.83;;;;;;;-0.55;73.55;99291.17;1790744;79;25471;-80
2021/04/07 04:42:19;;;;;;;26.37;15.63;;;;;;;-0.47;73.73;99293.14;1785592;79;25792;-81
2021/04/07 04:44:45;;;;;;;29.50;15.05;;;;;;;-0.43;73.50;99289.41;1788498;79;25809;-81
2021/04/07 04:47:11;;;;;;;20.37;13.67;;;;;;;-0.38;73.59;99289.88;1792745;78;33274;-81
2021/04/07 04:49:37;;;;;;;28.90;14.33;;;;;;;-0.33;73.83;99290.33;1787591;79;31302;-80
2021/04/07 04:52:03;;;;;;;23.43;12.23;;;;;;;-0.30;73.98;99291.80;1787389;79;34771;-80
2021/04/07 04:54:29;;;;;;;20.88;12.55;;;;;;;-0.26;74.05;99287.59;1785460;79;26495;-79
2021/04/07 04:56:55;;;;;;;24.57;13.83;;;;;;;-0.21;73.84;99290.28;1785120;79;25833;-79
2021/04/07 04:59:21;;;;;;;22.87;13.17;;;;;;;-0.16;73.81;99288.16;1785412;79;33108;-78
2021/04/07 05:01:46;;;;;;;25.97;12.00;;;;;;;-0.12;73.86;99286.97;1778075;79;31597;-78
2021/04/07 05:04:12;;;;;;;24.53;13.23;;;;;;;-0.08;73.83;99292.22;1782865;79;34905;-79
2021/04/07 05:06:38;;;;;;;24.67;13.33;;;;;;;-0.05;74.18;99293.25;1781281;79;25778;-78
2021/04/07 05:09:06;;;;;;;22.57;13.27;;;;;;;-0.04;74.23;99294.39;1779658;78;25849;-79
2021/04/07 05:11:33;;;;;;;21.20;11.97;;;;;;;-0.04;74.04;99299.53;1783084;79;25863;-80
2021/04/07 05:14:04;;;;;;;20.88;11.73;;;;;;;0.03;74.59;99308.02;1782186;79;25837;-80
2021/04/07 05:16:32;;;;;;;26.33;12.82;;;;;;;0.02;74.95;99299.97;1778910;79;25385;-80
2021/04/07 05:18:59;;;;;;;25.50;13.70;;;;;;;0.07;74.86;99304.28;1779297;79;25667;-80
2021/04/07 05:21:25;;;;;;;21.55;12.75;;;;;;;0.08;74.66;99304.61;1776121;79;25881;-75
2021/04/07 05:23:51;;;;;;;25.95;14.30;;;;;;;0.08;74.80;99306.73;1780845;79;25895;-77
2021/04/07 05:26:17;;;;;;;20.60;12.10;;;;;;;0.10;74.98;99313.02;1781783;79;31338;-76
2021/04/07 05:28:43;;;;;;;21.05;13.05;;;;;;;0.10;74.89;99310.45;1777543;79;26471;-79
2021/04/07 05:31:10;;;;;;;27.10;15.50;;;;;;;0.12;75.43;99316.28;1781161;79;25809;-79
2021/04/07 05:33:39;;;;;;;26.45;14.80;;;;;;;0.14;74.87;99320.36;1768491;79;43019;-79
2021/04/07 05:36:10;;;;;;;21.33;13.25;;;;;;;0.22;74.87;99317.17;1780302;79;26096;-80
2021/04/07 05:38:36;;;;;;;;;;;;;;;0.28;75.01;99310.72;1783475;79;25804;-80
2021/04/07 05:41:03;;;;;;;26.10;14.73;;;;;;;0.31;74.69;99316.89;1778850;78;35052;-79
2021/04/07 05:43:31;;;;;;;22.27;13.83;;;;;;;0.33;74.85;99320.97;1781076;79;26330;-79
2021/04/07 05:45:57;;;;;;;22.73;14.33;;;;;;;0.38;74.68;99323.14;1778319;79;25843;-79
2021/04/07 05:48:23;;;;;;;22.55;13.10;;;;;;;0.39;74.70;99323.50;1783722;79;26391;-79
2021/04/07 05:50:52;;;;;;;18.83;12.40;;;;;;;0.38;74.56;99317.55;1784414;79;32523;-79
2021/04/07 05:53:19;;;;;;;19.42;13.05;;;;;;;0.43;74.69;99319.25;1783697;79;25873;-81
2021/04/07 05:55:47;;;;;;;21.90;13.13;;;;;;;0.52;74.47;99319.44;1783455;79;25777;-79
2021/04/07 05:58:14;;;;;;;24.57;14.58;;;;;;;0.56;74.63;99325.49;1786798;79;25765;-79
2021/04/07 06:00:42;;;;;;;17.60;11.93;;;;;;;0.60;74.49;99325.59;1783435;79;25693;-79
2021/04/07 06:03:08;;;;;;;22.90;15.03;;;;;;;0.71;74.61;99331.59;1781860;79;25687;-79
2021/04/07 06:05:36;;;;;;;24.92;16.60;;;;;;;0.66;74.30;99334.08;1786807;79;25793;-80
2021/04/07 06:08:03;;;;;;;20.12;15.10;;;;;;;0.58;74.45;99332.61;1783629;79;25746;-79
2021/04/07 06:10:31;;;;;;;22.62;14.68;;;;;;;0.54;74.77;99336.36;1781418;79;25776;-80
2021/04/07 06:12:58;;;;;;;23.55;13.18;;;;;;;0.47;75.01;99337.83;1781608;79;26291;-80
2021/04/07 06:15:25;;;;;;;21.65;14.35;;;;;;;0.41;75.24;99344.28;1783110;79;26484;-81
2021/04/07 06:20:28;;;;;;;22.65;14.45;;;;;;;0.33;75.06;99341.53;1783915;79;25747;-75
2021/04/07 06:22:55;;;;;;;23.43;14.87;;;;;;;0.34;75.25;99344.43;1779592;79;25479;-76
2021/04/07 06:25:23;;;;;;;18.77;12.88;;;;;;;0.37;75.14;99344.66;1785114;79;25721;-79
2021/04/07 06:27:51;;;;;;;27.22;17.87;;;;;;;0.41;75.46;99347.33;1781001;79;25367;-79
2021/04/07 06:30:40;;;;;;;24.98;14.78;;;;;;;0.41;75.23;99351.19;1781138;79;25924;-80
2021/04/07 06:32:52;;;;;;;20.25;12.45;;;;;;;0.41;75.47;99349.42;1787420;79;25714;-79
2021/04/07 06:35:17;;;;;;;17.47;11.43;;;;;;;0.39;75.55;99349.20;1784538;79;25273;-81
2021/04/07 06:37:43;;;;;;;21.53;11.30;;;;;;;0.34;75.86;99350.05;1781849;79;33303;-83
2021/04/07 06:40:10;;;;;;;24.50;14.37;;;;;;;0.31;76.29;99367.00;1776176;79;32282;-90
2021/04/07 06:42:36;;;;;;;28.75;17.25;;;;;;;0.32;76.01;99358.34;1777584;79;26039;-80
2021/04/07 06:45:05;;;;;;;24.90;16.45;;;;;;;0.35;75.56;99367.89;1784499;79;25295;-87
2021/04/07 06:47:32;;;;;;;25.68;15.78;;;;;;;0.38;75.44;99364.27;1737277;79;54532;-88
2021/04/07 06:49:59;;;;;;;25.80;17.73;;;;;;;0.41;75.68;99366.13;1671786;85;25595;-88
2021/04/07 06:52:26;;;;;;;24.70;16.10;;;;;;;0.41;75.42;99366.61;1671041;85;25267;-88
2021/04/07 06:54:54;;;;;;;21.62;14.75;;;;;;;0.41;75.74;99371.27;1669081;85;25282;-85
2021/04/07 06:57:20;;;;;;;22.17;14.30;;;;;;;0.40;76.08;99376.05;1668827;85;25257;-85
2021/04/07 06:59:48;;;;;;;18.52;12.75;;;;;;;0.38;76.02;99375.83;1668825;85;25304;-85
2021/04/07 07:02:16;;;;;;;20.92;15.80;;;;;;;0.36;76.37;99386.25;1668670;85;25725;-85
2021/04/07 07:04:44;;;;;;;24.23;14.95;;;;;;;0.33;76.14;99390.83;1668608;85;25281;-85
2021/04/07 07:07:09;;;;;;;22.48;14.23;;;;;;;0.35;76.36;99392.31;1668824;86;25450;-84
2021/04/07 07:09:35;;;;;;;22.37;12.77;;;;;;;0.38;76.39;99392.53;1669013;86;25308;-84
2021/04/07 07:12:02;;;;;;;16.70;10.87;;;;;;;0.32;76.44;99404.59;1668945;85;25216;-83
2021/04/07 07:14:28;;;;;;;18.70;11.97;;;;;;;0.29;76.67;99412.55;1689386;84;25864;-85
2021/04/07 07:16:56;;;;;;;16.48;11.05;;;;;;;0.25;76.39;99406.86;1672385;84;25249;-86
2021/04/07 07:19:28;;;;;;;15.80;9.90;;;;;;;0.25;76.39;99411.19;1686046;83;25242;-86
2021/04/07 07:22:01;;;;;;;14.40;8.85;;;;;;;0.23;76.45;99407.44;1667377;85;25230;-85
2021/04/07 07:24:32;;;;;;;15.68;8.73;;;;;;;0.25;76.11;99406.86;1666703;85;25363;-85
2021/04/07 07:27:04;;;;;;;20.02;14.20;;;;;;;0.28;76.30;99418.65;1666816;86;26459;-86
2021/04/07 07:29:34;;;;;;;24.87;13.25;;;;;;;0.29;76.07;99406.13;1666786;85;25416;-87
2021/04/07 07:32:07;;;;;;;22.70;14.23;;;;;;;0.32;76.38;99410.55;1666918;86;25236;-87
2021/04/07 07:34:34;;;;;;;22.73;14.90;;;;;;;0.35;76.49;99412.06;1666796;85;25630;-86
2021/04/07 07:37:03;;;;;;;23.47;16.80;;;;;;;0.38;76.21;99413.94;1666744;85;25223;-86
2021/04/07 07:39:33;;;;;;;23.70;14.93;;;;;;;0.47;76.21;99420.08;1666936;86;25834;-87
2021/04/07 07:42:10;;;;;;;18.12;11.80;;;;;;;0.52;76.18;99426.12;1666825;86;25478;-85
2021/04/07 07:44:39;;;;;;;20.17;14.23;;;;;;;0.57;75.96;99421.42;1666759;85;25313;-85
2021/04/07 07:47:18;;;;;;;21.73;14.70;;;;;;;0.61;75.72;99425.39;1664743;85;25241;-87
2021/04/07 07:49:53;;;;;;;17.52;10.55;;;;;;;0.65;75.84;99430.17;1635498;87;25265;-87
2021/04/07 07:52:31;;;;;;;14.70;9.98;;;;;;;0.65;75.77;99430.62;1635364;87;25717;-87
2021/04/07 07:54:59;;;;;;;14.35;8.78;;;;;;;0.71;75.77;99428.02;1695862;84;25638;-86
2021/04/07 07:57:26;;;;;;;17.62;8.58;;;;;;;0.76;75.50;99429.75;1695812;84;25253;-86
2021/04/07 07:59:57;;;;;;;14.25;9.35;;;;;;;0.77;75.49;99433.97;1695959;84;25265;-88
2021/04/07 08:02:28;;;;;;;13.00;8.65;;;;;;;0.81;75.43;99429.71;1681336;84;25882;-86
2021/04/07 08:04:54;;;;;;;14.05;8.63;;;;;;;0.84;74.98;99437.65;1679192;84;25769;-89
2021/04/07 08:07:22;;;;;;;11.13;7.37;;;;;;;0.85;74.85;99434.16;1678549;85;31155;-86
2021/04/07 08:09:48;;;;;;;15.72;7.12;;;;;;;0.90;74.77;99437.17;1695983;84;25267;-85
2021/04/07 08:12:16;;;;;;;14.87;9.93;;;;;;;0.92;74.60;99437.84;1697287;84;25396;-85
2021/04/07 08:14:46;;;;;;;16.12;9.28;;;;;;;0.96;74.38;99444.85;1721119;83;25283;-85
2021/04/07 08:17:13;;;;;;;12.47;8.23;;;;;;;1.00;74.16;99442.36;1698680;83;25710;-85
2021/04/07 08:19:40;;;;;;;13.38;9.18;;;;;;;1.05;73.95;99450.04;1697128;83;25555;-85
2021/04/07 08:22:08;;;;;;;12.37;7.20;;;;;;;1.07;73.55;99436.59;1697174;84;25324;-83
2021/04/07 08:24:34;;;;;;;16.48;9.38;;;;;;;1.09;73.50;99459.16;1697410;83;25272;-85
2021/04/07 08:27:01;;;;;;;12.77;7.60;;;;;;;1.10;73.38;99447.91;1697178;84;25364;-85
2021/04/07 08:29:27;;;;;;;12.78;8.28;;;;;;;1.14;73.56;99452.80;1697154;84;25588;-86
2021/04/07 08:31:53;;;;;;;13.50;8.17;;;;;;;1.22;73.47;99447.83;1697123;84;31304;-85
2021/04/07 08:34:22;;;;;;;13.05;9.15;;;;;;;1.33;73.39;99453.70;1697286;84;25852;-87
2021/04/07 08:36:48;;;;;;;16.82;8.33;;;;;;;1.42;73.03;99448.28;1697418;84;25303;-87
2021/04/07 08:39:18;;;;;;;12.85;7.92;;;;;;;1.48;72.91;99456.77;1697374;83;25600;-85
2021/04/07 08:41:46;;;;;;;;;;;;;;;1.54;72.60;99447.23;1699745;84;27488;-86
2021/04/07 08:44:12;;;;;;;11.15;7.58;;;;;;;1.59;72.45;99458.44;1697212;84;25233;-87
2021/04/07 08:46:55;;;;;;;15.28;8.48;;;;;;;1.60;72.34;99459.25;1697206;84;25760;-88
2021/04/07 08:49:38;;;;;;;14.63;8.10;;;;;;;1.60;72.21;99456.19;1696753;84;25760;-88
2021/04/07 08:52:22;;;;;;;19.52;11.33;;;;;;;1.61;72.16;99460.42;1665274;85;25315;-88
2021/04/07 08:54:57;;;;;;;15.58;9.35;;;;;;;1.58;72.13;99461.94;1697116;84;25651;-88
2021/04/07 08:57:28;;;;;;;14.10;9.40;;;;;;;1.61;72.20;99468.59;1697180;84;25332;-87
2021/04/07 08:59:56;;;;;;;15.80;10.05;;;;;;;1.63;72.25;99464.94;1697173;84;25252;-87
2021/04/07 09:02:22;;;;;;;18.25;10.08;;;;;;;1.62;72.11;99483.12;1665700;84;25234;-86
2021/04/07 09:05:05;;;;;;;15.73;9.53;;;;;;;1.60;72.17;99473.41;1664957;85;25261;-87
2021/04/07 09:07:39;;;;;;;14.63;8.70;;;;;;;1.63;72.31;99469.28;1664721;85;25614;-86
2021/04/07 09:10:18;;;;;;;14.15;9.00;;;;;;;1.74;72.54;99466.61;1665383;85;25287;-87
2021/04/07 09:12:47;;;;;;;19.07;9.90;;;;;;;1.80;72.15;99466.11;1663586;86;25653;-86
2021/04/07 09:15:25;;;;;;;17.92;8.78;;;;;;;1.90;72.08;99471.28;1665397;86;25295;-86
2021/04/07 09:17:57;;;;;;;18.23;10.75;;;;;;;1.98;71.72;99463.22;1669255;85;25237;-86
2021/04/07 09:20:37;;;;;;;18.25;11.45;;;;;;;2.04;71.53;99462.36;1680732;85;25572;-87
2021/04/07 09:23:24;;;;;;;13.25;8.35;;;;;;;2.07;70.75;99462.89;1660916;85;25274;-87
2021/04/07 09:26:13;;;;;;;15.38;9.93;;;;;;;2.13;70.49;99453.84;1684694;84;25270;-87
2021/04/07 09:28:42;;;;;;;16.50;10.30;;;;;;;2.13;70.49;99453.84;1654619;85;25312;-86
2021/04/07 09:31:27;;;;;;;15.40;9.73;;;;;;;2.27;69.98;99459.09;1644346;84;25257;-87
2021/04/07 09:33:56;;;;;;;12.07;8.20;;;;;;;2.30;69.54;99463.97;1643097;86;25681;-86
2021/04/07 09:36:35;;;;;;;10.90;8.18;;;;;;;2.30;69.54;99463.97;1642956;86;25288;-87
2021/04/07 09:39:11;;;;;;;13.45;9.23;;;;;;;2.32;69.88;99464.62;1643199;86;25796;-85
2021/04/07 09:41:42;;;;;;;14.15;8.73;;;;;;;2.51;70.09;99441.91;1643027;86;25418;-87
2021/04/07 09:44:10;;;;;;;14.68;9.28;;;;;;;2.51;70.09;99441.91;1643288;87;25399;-87
2021/04/07 09:46:37;;;;;;;14.70;8.68;;;;;;;2.85;69.41;99452.14;1643262;86;25629;-88
2021/04/07 09:49:11;;;;;;;14.95;8.55;;;;;;;2.93;68.43;99457.10;1645588;86;25360;-86
2021/04/07 09:51:49;;;;;;;16.27;8.63;;;;;;;2.91;68.10;99459.00;1646933;86;25709;-87
2021/04/07 09:54:22;;;;;;;11.25;6.92;;;;;;;2.94;67.87;99453.56;1652996;84;25451;-86
2021/04/07 09:57:01;;;;;;;17.15;9.75;;;;;;;2.94;67.27;99456.95;1703934;83;25737;-85
2021/04/07 09:59:50;;;;;;;13.08;9.15;;;;;;;2.96;67.79;99462.80;1704393;83;25647;-86
2021/04/07 10:02:27;;;;;;;17.37;10.10;;;;;;;3.00;67.75;99461.58;1678247;84;25213;-85
2021/04/07 10:04:54;;;;;;;12.50;7.78;;;;;;;3.04;67.44;99460.34;1678485;84;25654;-85
2021/04/07 10:07:29;;;;;;;15.68;8.08;;;;;;;3.06;66.85;99466.66;1678503;85;25263;-84
2021/04/07 10:10:00;;;;;;;11.38;7.15;;;;;;;3.06;67.44;99469.24;1679140;84;25671;-85
2021/04/07 10:12:34;;;;;;;16.93;7.45;;;;;;;3.05;67.27;99462.43;1679307;84;25813;-85
2021/04/07 10:15:03;;;;;;;14.33;8.80;;;;;;;3.04;66.55;99469.84;1703551;83;25446;-86
2021/04/07 10:17:32;;;;;;;11.93;7.20;;;;;;;3.07;66.74;99463.92;1679041;85;25598;-86
2021/04/07 10:20:14;;;;;;;15.60;8.10;;;;;;;3.10;66.08;99461.55;1676696;84;25459;-85
2021/04/07 10:22:43;;;;;;;15.88;9.38;;;;;;;3.22;66.63;99466.90;1665905;85;25281;-86
2021/04/07 10:25:15;;;;;;;13.28;8.08;;;;;;;3.40;66.30;99461.80;1669725;85;25604;-87
2021/04/07 10:27:44;;;;;;;12.28;6.95;;;;;;;3.47;65.70;99466.75;1689975;83;25838;-86
2021/04/07 10:30:14;;;;;;;9.68;6.72;;;;;;;3.51;64.88;99470.66;1678955;84;25694;-86
2021/04/07 10:32:49;;;;;;;10.95;6.72;;;;;;;3.52;65.57;99465.84;1685185;84;25442;-88
2021/04/07 10:35:25;;;;;;;11.12;7.30;;;;;;;3.58;63.81;99472.70;1689657;84;25264;-88
2021/04/07 10:38:09;;;;;;;11.18;5.95;;;;;;;3.48;63.44;99478.70;1679392;84;25693;-88
2021/04/07 10:40:39;;;;;;;10.32;6.15;;;;;;;3.57;63.11;99470.57;1684149;84;25331;-87
2021/04/07 10:43:17;;;;;;;10.82;6.42;;;;;;;3.73;62.22;99480.30;1688106;84;25346;-88
2021/04/07 10:45:44;;;;;;;10.68;7.10;;;;;;;3.83;62.53;99477.20;1678003;85;25297;-88
2021/04/07 10:48:10;;;;;;;11.10;7.22;;;;;;;4.02;63.09;99475.00;1679587;84;25255;-88
2021/04/07 10:50:40;;;;;;;9.67;6.43;;;;;;;4.12;61.27;99473.18;1679903;85;25750;-87
2021/04/07 10:53:07;;;;;;;13.15;6.75;;;;;;;4.11;61.64;99476.70;1679927;83;25333;-88
2021/04/07 10:55:34;;;;;;;9.53;6.67;;;;;;;4.05;60.81;99471.31;1679071;84;25265;-87
2021/04/07 10:58:01;;;;;;;15.23;8.98;;;;;;;4.03;61.48;99481.78;1679593;84;25606;-87
2021/04/07 11:00:38;;;;;;;15.53;7.40;;;;;;;4.08;61.79;99477.00;1679713;84;25735;-87
2021/04/07 11:03:06;;;;;;;14.25;7.75;;;;;;;4.12;61.54;99489.15;1685941;84;25756;-85
2021/04/07 11:05:47;;;;;;;14.83;7.90;;;;;;;3.99;61.33;99481.75;1689788;84;25291;-84
2021/04/07 11:08:15;;;;;;;11.35;7.78;;;;;;;3.91;61.56;99495.88;1676880;84;25254;-85
2021/04/07 11:10:49;;;;;;;10.40;6.83;;;;;;;3.82;62.04;99496.72;1670489;85;25431;-86
2021/04/07 11:13:18;;;;;;;11.73;6.95;;;;;;;3.74;62.47;99494.88;1652857;85;25344;-87
2021/04/07 11:15:44;;;;;;;11.55;6.45;;;;;;;3.71;62.68;99491.25;1671480;85;25832;-86
2021/04/07 11:18:10;;;;;;;8.30;5.87;;;;;;;3.71;63.07;99492.55;1645866;86;25243;-86
2021/04/07 11:20:39;;;;;;;10.70;6.30;;;;;;;3.65;62.74;99490.05;1675062;85;25288;-87
2021/04/07 11:23:05;;;;;;;20.85;7.85;;;;;;;3.59;62.64;99493.21;1704674;83;25226;-85
2021/04/07 11:25:32;;;;;;;11.13;6.30;;;;;;;3.46;63.38;99494.00;1708637;82;25243;-85
2021/04/07 11:27:58;;;;;;;12.30;8.28;;;;;;;3.37;64.23;99502.12;1692433;82;25708;-87
2021/04/07 11:30:27;;;;;;;12.23;7.17;;;;;;;3.30;64.72;99497.16;1668960;84;25391;-87
2021/04/07 11:32:59;;;;;;;12.37;7.42;;;;;;;3.31;65.42;99503.49;1704731;84;25193;-86
2021/04/07 11:35:29;;;;;;;10.65;6.70;;;;;;;3.32;65.88;99501.23;1702114;83;25331;-88